X  CloseMetar Aviation Weather Data     CYYC Calgary International

Temperature

14°C Temperature

12°C Dewpoint

88% Humidity



Wind

16 KM/H

10 MPH

 4 M/S

 9 KTS



360°
Due North
Current Conditions

Light Rain Light Rain
Pressure 1010.82 (hPa) - 29.85 (in)
Visibility 14 (mi) - 22.5 (km)
Airport
Airport-code CYYC

Location Calgary International 4 (km)

Metar:
CYYC 221400Z 36009KT 14SM -SHRA FEW015 FEW030 SCT060 BKN080 BKN120 14/12 A2985 RMK CF1SC2SC1AC4AC1 CF TR AC TR VIS SW - NW 30 CVCTV CLDS EMBD SLP097 DENSITY ALT 4500FT

Time: 22-08-2019 08:00